createdAt,value
2022-08-31T00:00:10.736Z,98277.75
2022-08-31T00:02:57.768Z,98257.84
2022-08-31T00:05:24.482Z,98271.69
2022-08-31T00:07:51.884Z,98301.97
2022-08-31T00:10:31.626Z,98299.31
2022-08-31T00:13:00.583Z,98301.06
2022-08-31T00:15:27.983Z,98306.38
2022-08-31T00:17:56.110Z,98303.44
2022-08-31T00:20:33.292Z,98308.78
2022-08-31T00:23:10.754Z,98307.97
2022-08-31T00:25:40.120Z,98300.00
2022-08-31T00:28:09.010Z,98292.94
2022-08-31T00:30:36.494Z,98234.75
2022-08-31T00:33:03.959Z,98300.59
2022-08-31T00:35:32.259Z,98305.59
2022-08-31T00:37:59.535Z,98304.78
2022-08-31T00:40:26.528Z,98287.16
2022-08-31T00:42:53.880Z,98286.81
2022-08-31T00:45:20.843Z,98305.88
2022-08-31T00:47:47.428Z,98308.91
2022-08-31T00:50:17.550Z,98302.94
2022-08-31T00:52:54.066Z,98303.59
2022-08-31T00:55:32.011Z,98303.78
2022-08-31T00:58:03.422Z,98297.56
2022-08-31T01:00:30.737Z,98299.22
2022-08-31T01:03:01.746Z,98299.03
2022-08-31T01:05:30.896Z,98299.84
2022-08-31T01:07:59.433Z,98287.16
2022-08-31T01:10:30.850Z,98288.59
2022-08-31T01:12:58.655Z,98298.47
2022-08-31T01:15:27.490Z,98295.66
2022-08-31T01:17:56.047Z,98295.31
2022-08-31T01:20:48.903Z,98297.97
2022-08-31T01:23:27.280Z,98274.44
2022-08-31T01:25:56.947Z,98300.56
2022-08-31T01:28:24.067Z,98299.72
2022-08-31T01:31:41.791Z,98300.72
2022-08-31T01:34:09.262Z,98298.66
2022-08-31T01:36:37.993Z,98298.59
2022-08-31T01:39:06.609Z,98270.88
2022-08-31T01:41:33.251Z,98297.56
2022-08-31T01:44:00.633Z,98295.38
2022-08-31T01:46:28.493Z,98301.09
2022-08-31T01:48:55.009Z,98304.59
2022-08-31T01:51:22.564Z,98275.94
2022-08-31T01:53:52.802Z,98297.84
2022-08-31T01:56:26.827Z,98300.72
2022-08-31T01:58:55.110Z,98308.53
2022-08-31T02:01:37.535Z,98313.44
2022-08-31T02:04:07.093Z,98316.38
2022-08-31T02:06:34.052Z,98313.19
2022-08-31T02:09:06.655Z,98317.28
2022-08-31T02:11:33.485Z,98284.94
2022-08-31T02:14:00.132Z,98323.00
2022-08-31T02:16:27.017Z,98301.53
2022-08-31T02:18:53.593Z,98323.63
2022-08-31T02:21:20.271Z,98331.75
2022-08-31T02:23:46.870Z,98320.97
2022-08-31T02:26:14.329Z,98331.25
2022-08-31T02:28:43.770Z,98328.56
2022-08-31T02:31:10.445Z,98333.41
2022-08-31T02:33:45.602Z,98307.56
2022-08-31T02:36:12.252Z,98330.19
2022-08-31T02:38:39.747Z,98314.66
2022-08-31T02:41:06.646Z,98330.59
2022-08-31T02:43:34.757Z,98329.50
2022-08-31T02:46:01.803Z,98338.19
2022-08-31T02:48:36.194Z,98333.00
2022-08-31T02:51:07.216Z,98342.19
2022-08-31T02:53:33.970Z,98349.75
2022-08-31T02:56:00.795Z,98337.88
2022-08-31T02:58:27.401Z,98346.50
2022-08-31T03:00:53.973Z,98339.22
2022-08-31T03:03:21.968Z,98340.56
2022-08-31T03:05:50.001Z,98342.72
2022-08-31T03:08:17.463Z,98346.28
2022-08-31T03:10:46.918Z,98337.34
2022-08-31T03:13:13.582Z,98342.78
2022-08-31T03:15:43.738Z,98346.53
2022-08-31T03:18:10.526Z,98329.53
2022-08-31T03:20:37.550Z,98218.69
2022-08-31T03:23:05.858Z,98344.41
2022-08-31T03:25:32.888Z,98339.22
2022-08-31T03:27:59.520Z,98342.22
2022-08-31T03:30:31.418Z,98349.00
2022-08-31T03:33:09.791Z,98341.44
2022-08-31T03:35:37.797Z,98345.50
2022-08-31T03:38:05.365Z,98343.41
2022-08-31T03:40:32.776Z,98344.75
2022-08-31T03:42:59.476Z,98348.03
2022-08-31T03:45:27.963Z,98340.72
2022-08-31T03:47:55.160Z,98345.59
2022-08-31T03:50:23.809Z,98345.59
2022-08-31T03:53:04.177Z,98350.69
2022-08-31T03:55:33.012Z,98353.16
2022-08-31T03:58:00.010Z,98349.41
2022-08-31T04:00:28.547Z,98348.31
2022-08-31T04:03:01.558Z,98341.00
2022-08-31T04:05:35.137Z,98358.03
2022-08-31T04:08:01.790Z,98357.75
2022-08-31T04:10:49.578Z,98345.06
2022-08-31T04:13:36.225Z,98355.03
2022-08-31T04:16:22.463Z,98368.81
2022-08-31T04:19:20.152Z,98364.50
2022-08-31T04:22:12.886Z,98365.31
2022-08-31T04:24:47.856Z,98368.56
2022-08-31T04:27:14.351Z,98369.66
2022-08-31T04:29:40.883Z,98372.34
2022-08-31T04:32:07.378Z,98376.66
2022-08-31T04:34:36.078Z,98373.13
2022-08-31T04:37:02.857Z,98379.63
2022-08-31T04:39:33.857Z,98378.00
2022-08-31T04:42:00.812Z,98386.63
2022-08-31T04:44:29.820Z,98386.09
2022-08-31T04:46:58.407Z,98387.72
2022-08-31T04:49:25.664Z,98390.44
2022-08-31T04:51:52.363Z,98390.97
2022-08-31T04:54:18.955Z,98397.44
2022-08-31T04:56:45.823Z,98397.19
2022-08-31T04:59:25.979Z,98393.13
2022-08-31T05:02:07.547Z,98394.72
2022-08-31T05:04:41.100Z,98400.41
2022-08-31T05:07:07.650Z,98401.50
2022-08-31T05:09:34.577Z,98398.00
2022-08-31T05:12:01.581Z,98406.09
2022-08-31T05:14:28.308Z,98410.16
2022-08-31T05:17:01.509Z,98341.25
2022-08-31T05:19:31.909Z,98405.28
2022-08-31T05:21:58.858Z,98407.47
2022-08-31T05:24:25.602Z,98401.50
2022-08-31T05:26:54.167Z,98403.38
2022-08-31T05:29:24.135Z,98408.22
2022-08-31T05:31:58.285Z,98412.00
2022-08-31T05:34:25.137Z,98359.91
2022-08-31T05:36:53.816Z,98415.25
2022-08-31T05:39:20.751Z,98424.94
2022-08-31T05:41:47.654Z,98432.56
2022-08-31T05:44:16.609Z,98420.38
2022-08-31T05:46:43.707Z,98420.91
2022-08-31T05:49:11.636Z,98432.56
2022-08-31T05:51:39.281Z,98424.19
2022-08-31T05:54:07.564Z,98439.28
2022-08-31T05:56:34.553Z,98433.66
2022-08-31T05:59:01.294Z,98438.22
2022-08-31T06:01:30.753Z,98440.91
2022-08-31T06:04:07.417Z,98420.13
2022-08-31T06:06:34.423Z,98442.81
2022-08-31T06:09:00.962Z,98443.91
2022-08-31T06:11:30.588Z,98440.66
2022-08-31T06:13:59.860Z,98442.28
2022-08-31T06:16:27.602Z,98443.63
2022-08-31T06:18:55.604Z,98451.44
2022-08-31T06:21:30.167Z,98453.06
2022-08-31T06:23:58.220Z,98453.00
2022-08-31T06:26:27.915Z,98453.59
2022-08-31T06:28:58.772Z,98448.19
2022-08-31T06:31:49.826Z,98456.06
2022-08-31T06:34:20.169Z,98408.44
2022-08-31T06:37:06.629Z,98454.72
2022-08-31T06:39:33.974Z,98457.41
2022-08-31T06:42:25.764Z,98461.38
2022-08-31T06:44:59.297Z,98460.34
2022-08-31T06:47:44.500Z,98461.66
2022-08-31T06:50:13.445Z,98459.75
2022-08-31T06:52:40.183Z,98464.66
2022-08-31T06:55:22.188Z,98462.72
2022-08-31T06:58:06.946Z,98465.13
2022-08-31T07:00:52.953Z,98470.25
2022-08-31T07:03:32.993Z,98467.81
2022-08-31T07:06:09.700Z,98453.47
2022-08-31T07:08:38.334Z,98471.34
2022-08-31T07:11:10.402Z,98473.44
2022-08-31T07:13:37.085Z,98473.22
2022-08-31T07:16:09.772Z,98470.31
2022-08-31T07:18:37.369Z,98464.66
2022-08-31T07:21:16.442Z,98467.63
2022-08-31T07:23:44.377Z,98478.97
2022-08-31T07:26:17.532Z,98469.78
2022-08-31T07:28:44.430Z,98454.34
2022-08-31T07:31:15.961Z,98471.69
2022-08-31T07:33:42.895Z,98473.84
2022-08-31T07:36:12.459Z,98478.22
2022-08-31T07:39:07.194Z,98484.38
2022-08-31T07:41:55.778Z,98483.75
2022-08-31T07:44:24.041Z,98464.88
2022-08-31T07:46:55.019Z,98477.34
2022-08-31T07:49:23.301Z,98488.44
2022-08-31T07:52:03.757Z,98482.00
2022-08-31T07:54:52.003Z,98484.41
2022-08-31T07:57:47.207Z,98489.06
2022-08-31T08:00:22.061Z,98484.97
2022-08-31T08:02:52.978Z,98488.50
2022-08-31T08:05:28.628Z,98495.53
2022-08-31T08:08:15.790Z,98494.16
2022-08-31T08:10:56.635Z,98492.00
2022-08-31T08:13:25.845Z,98493.91
2022-08-31T08:16:18.398Z,98501.22
2022-08-31T08:18:56.099Z,98502.25
2022-08-31T08:21:28.438Z,98491.47
2022-08-31T08:23:55.778Z,98504.47
2022-08-31T08:26:31.001Z,98509.88
2022-08-31T08:29:05.590Z,98498.50
2022-08-31T08:31:33.421Z,98522.25
2022-08-31T08:34:00.341Z,98535.00
2022-08-31T08:36:27.036Z,98528.75
2022-08-31T08:38:54.616Z,98526.78
2022-08-31T08:41:26.983Z,98528.13
2022-08-31T08:43:57.250Z,98521.34
2022-08-31T08:46:40.113Z,98519.75
2022-08-31T08:49:20.134Z,98522.72
2022-08-31T08:51:54.031Z,98529.22
2022-08-31T08:54:32.237Z,98530.63
2022-08-31T08:57:07.750Z,98531.47
2022-08-31T08:59:34.378Z,98534.19
2022-08-31T09:02:04.943Z,98533.88
2022-08-31T09:04:52.522Z,98543.34
2022-08-31T09:07:37.346Z,98543.91
2022-08-31T09:10:18.119Z,98543.88
2022-08-31T09:13:09.693Z,98544.94
2022-08-31T09:15:53.064Z,98549.56
2022-08-31T09:18:35.793Z,98548.75
2022-08-31T09:21:25.473Z,98547.69
2022-08-31T09:24:03.708Z,98551.13
2022-08-31T09:26:54.366Z,98548.78
2022-08-31T09:29:33.179Z,98546.59
2022-08-31T09:32:06.994Z,98544.19
2022-08-31T09:34:41.351Z,98549.28
2022-08-31T09:37:19.327Z,98552.53
2022-08-31T09:39:49.158Z,98539.28
2022-08-31T09:42:20.432Z,98543.28
2022-08-31T09:44:50.836Z,98550.09
2022-08-31T09:47:55.856Z,98542.25
2022-08-31T09:50:35.504Z,98543.66
2022-08-31T09:53:26.749Z,98542.81
2022-08-31T09:56:14.413Z,98537.06
2022-08-31T09:58:54.263Z,98536.28
2022-08-31T10:01:34.027Z,98539.00
2022-08-31T10:04:46.022Z,98534.66
2022-08-31T10:07:40.549Z,98537.31
2022-08-31T10:10:28.241Z,98545.59
2022-08-31T10:13:13.990Z,98556.72
2022-08-31T10:15:52.837Z,98554.94
2022-08-31T10:18:28.937Z,98551.91
2022-08-31T10:21:05.955Z,98552.47
2022-08-31T10:23:56.254Z,98556.06
2022-08-31T10:26:56.993Z,98561.19
2022-08-31T10:29:40.714Z,98549.78
2022-08-31T10:32:53.877Z,98563.91
2022-08-31T10:35:44.011Z,98564.44
2022-08-31T10:38:32.346Z,98565.50
2022-08-31T10:41:23.484Z,98569.84
2022-08-31T10:44:05.945Z,98554.19
2022-08-31T10:46:34.529Z,98557.97
2022-08-31T10:49:04.506Z,98553.66
2022-08-31T10:51:40.174Z,98552.31
2022-08-31T10:54:28.844Z,98558.53
2022-08-31T10:57:21.541Z,98556.06
2022-08-31T11:00:09.829Z,98560.69
2022-08-31T11:03:06.975Z,98557.97
2022-08-31T11:05:50.526Z,98566.34
2022-08-31T11:08:36.219Z,98559.84
2022-08-31T11:11:06.734Z,98568.22
2022-08-31T11:13:57.050Z,98573.59
2022-08-31T11:16:51.068Z,98569.53
2022-08-31T11:19:38.466Z,98566.84
2022-08-31T11:22:37.439Z,98567.13
2022-08-31T11:25:29.201Z,98560.38
2022-08-31T11:28:09.180Z,98555.75
2022-08-31T11:30:45.621Z,98514.44
2022-08-31T11:33:21.240Z,98555.81
2022-08-31T11:36:06.706Z,98557.97
2022-08-31T11:38:48.529Z,98552.81
2022-08-31T11:41:48.837Z,98560.69
2022-08-31T11:44:46.643Z,98562.25
2022-08-31T11:47:28.263Z,98567.69
2022-08-31T11:50:05.565Z,98547.41
2022-08-31T11:52:48.345Z,98557.66
2022-08-31T11:55:21.010Z,98560.66
2022-08-31T11:58:07.152Z,98547.97
2022-08-31T12:01:02.961Z,98547.72
2022-08-31T12:03:43.071Z,98551.22
2022-08-31T12:06:33.851Z,98512.78
2022-08-31T12:09:38.040Z,98552.84
2022-08-31T12:12:10.877Z,98544.97
2022-08-31T12:14:47.694Z,98548.75
2022-08-31T12:17:24.355Z,98543.91
2022-08-31T12:20:02.409Z,98546.38
2022-08-31T12:23:15.392Z,98537.94
2022-08-31T12:26:06.352Z,98541.44
2022-08-31T12:29:14.409Z,98544.13
2022-08-31T12:31:41.586Z,98549.25
2022-08-31T12:34:13.920Z,98542.22
2022-08-31T12:36:40.493Z,98545.44
2022-08-31T12:39:13.204Z,98536.84
2022-08-31T12:41:45.115Z,98540.88
2022-08-31T12:44:14.447Z,98531.16
2022-08-31T12:46:54.447Z,98529.28
2022-08-31T12:49:48.659Z,98524.97
2022-08-31T12:52:42.949Z,98521.72
2022-08-31T12:55:23.406Z,98522.28
2022-08-31T12:58:12.728Z,98514.16
2022-08-31T13:00:43.306Z,98506.59
2022-08-31T13:03:24.621Z,98506.53
2022-08-31T13:06:13.632Z,98500.28
2022-08-31T13:08:54.131Z,98494.03
2022-08-31T13:11:27.987Z,98494.84
2022-08-31T13:14:14.212Z,98494.00
2022-08-31T13:16:44.632Z,98497.66
2022-08-31T13:19:21.092Z,98491.84
2022-08-31T13:22:06.933Z,98481.19
2022-08-31T13:24:42.330Z,98485.38
2022-08-31T13:27:20.688Z,98476.81
2022-08-31T13:29:48.825Z,98461.50
2022-08-31T13:32:21.367Z,98436.53
2022-08-31T13:34:49.172Z,98450.22
2022-08-31T13:37:28.377Z,98447.66
2022-08-31T13:39:55.926Z,98451.38
2022-08-31T13:42:31.906Z,98455.34
2022-08-31T13:45:02.955Z,98461.38
2022-08-31T13:47:47.542Z,98450.97
2022-08-31T13:50:25.203Z,98452.47
2022-08-31T13:53:25.516Z,98465.38
2022-08-31T13:55:48.696Z,98461.34
2022-08-31T13:58:30.426Z,98450.38
2022-08-31T14:01:36.551Z,98444.56
2022-08-31T14:04:03.221Z,98445.13
2022-08-31T14:06:38.709Z,98426.47
2022-08-31T14:09:16.869Z,98445.22
2022-08-31T14:11:53.255Z,98443.44
2022-08-31T14:14:39.797Z,98429.28
2022-08-31T14:17:12.190Z,98434.66
2022-08-31T14:19:38.749Z,98437.72
2022-08-31T14:22:36.426Z,98433.16
2022-08-31T14:25:06.459Z,98430.06
2022-08-31T14:27:36.695Z,98436.06
2022-08-31T14:30:03.877Z,98438.13
2022-08-31T14:32:30.929Z,98439.91
2022-08-31T14:34:58.982Z,98433.75
2022-08-31T14:37:30.080Z,98437.13
2022-08-31T14:40:07.560Z,98430.44
2022-08-31T14:42:37.920Z,98433.03
2022-08-31T14:45:18.459Z,98428.09
2022-08-31T14:47:47.819Z,98428.66
2022-08-31T14:50:21.973Z,98427.16
2022-08-31T14:52:59.516Z,98423.66
2022-08-31T14:55:28.125Z,98424.84
2022-08-31T14:58:01.822Z,98423.16
2022-08-31T15:00:31.700Z,98430.03
2022-08-31T15:03:01.065Z,98423.50
2022-08-31T15:05:27.580Z,98426.94
2022-08-31T15:07:55.753Z,98425.44
2022-08-31T15:10:25.271Z,98425.56
2022-08-31T15:12:52.448Z,98414.22
2022-08-31T15:15:20.354Z,98404.72
2022-08-31T15:17:51.852Z,98425.25
2022-08-31T15:20:20.896Z,98421.22
2022-08-31T15:22:48.210Z,98427.72
2022-08-31T15:25:15.589Z,98428.91
2022-08-31T15:27:44.379Z,98431.06
2022-08-31T15:30:12.402Z,98433.44
2022-08-31T15:32:48.650Z,98377.03
2022-08-31T15:35:19.016Z,98431.75
2022-08-31T15:37:56.246Z,98427.34
2022-08-31T15:40:23.822Z,98433.44
2022-08-31T15:42:50.896Z,98422.91
2022-08-31T15:45:17.731Z,98418.38
2022-08-31T15:48:03.702Z,98416.19
2022-08-31T15:50:31.774Z,98414.13
2022-08-31T15:53:01.618Z,98413.97
2022-08-31T15:55:30.830Z,98408.53
2022-08-31T15:57:59.322Z,98407.31
2022-08-31T16:00:28.961Z,98405.88
2022-08-31T16:02:57.167Z,98396.91
2022-08-31T16:05:31.358Z,98406.81
2022-08-31T16:07:58.049Z,98408.63
2022-08-31T16:10:27.676Z,98398.13
2022-08-31T16:12:54.197Z,98346.44
2022-08-31T16:15:24.495Z,98401.53
2022-08-31T16:17:51.703Z,98390.94
2022-08-31T16:20:18.221Z,98397.00
2022-08-31T16:22:45.391Z,98393.22
2022-08-31T16:25:14.274Z,98395.47
2022-08-31T16:27:43.322Z,98393.31
2022-08-31T16:30:11.861Z,98395.41
2022-08-31T16:32:38.674Z,98392.69
2022-08-31T16:35:06.198Z,98397.31
2022-08-31T16:37:33.434Z,98398.34
2022-08-31T16:40:00.343Z,98389.84
2022-08-31T16:42:27.066Z,98389.41
2022-08-31T16:44:58.442Z,98401.97
2022-08-31T16:47:29.122Z,98399.00
2022-08-31T16:49:55.857Z,98393.63
2022-08-31T16:52:26.619Z,98397.88
2022-08-31T16:54:54.333Z,98406.34
2022-08-31T16:57:27.148Z,98406.41
2022-08-31T16:59:56.451Z,98401.66
2022-08-31T17:02:24.876Z,98404.34
2022-08-31T17:04:53.338Z,98393.47
2022-08-31T17:07:23.088Z,98409.78
2022-08-31T17:09:50.177Z,98407.84
2022-08-31T17:12:21.405Z,98404.50
2022-08-31T17:14:52.116Z,98309.97
2022-08-31T17:17:22.539Z,98408.59
2022-08-31T17:19:50.137Z,98414.44
2022-08-31T17:22:24.397Z,98403.03
2022-08-31T17:24:56.347Z,98403.50
2022-08-31T17:27:23.955Z,98407.63
2022-08-31T17:29:52.654Z,98408.44
2022-08-31T17:32:23.780Z,98415.72
2022-08-31T17:34:52.059Z,98412.84
2022-08-31T17:37:27.192Z,98411.22
2022-08-31T17:39:55.024Z,98417.78
2022-08-31T17:42:22.663Z,98412.03
2022-08-31T17:44:53.003Z,98422.78
2022-08-31T17:47:20.932Z,98427.94
2022-08-31T17:49:47.583Z,98423.38
2022-08-31T17:52:14.336Z,98431.47
2022-08-31T17:54:43.086Z,98428.19
2022-08-31T17:57:13.471Z,98424.00
2022-08-31T17:59:42.707Z,98431.03
2022-08-31T18:02:18.992Z,98412.19
2022-08-31T18:04:45.851Z,98429.97
2022-08-31T18:07:12.668Z,98435.16
2022-08-31T18:09:41.894Z,98435.00
2022-08-31T18:12:09.500Z,98436.25
2022-08-31T18:14:38.847Z,98436.91
2022-08-31T18:17:08.620Z,98431.06
2022-08-31T18:19:35.789Z,98435.88
2022-08-31T18:22:02.986Z,98433.75
2022-08-31T18:24:34.146Z,98433.16
2022-08-31T18:27:04.144Z,98438.63
2022-08-31T18:29:34.482Z,98426.56
2022-08-31T18:32:05.848Z,98434.69
2022-08-31T18:34:36.323Z,98430.94
2022-08-31T18:37:04.244Z,98419.31
2022-08-31T18:39:52.423Z,98443.41
2022-08-31T18:42:38.927Z,98443.66
2022-08-31T18:45:16.000Z,98446.38
2022-08-31T18:47:52.644Z,98453.44
2022-08-31T18:50:32.424Z,98453.69
2022-08-31T18:53:10.817Z,98441.81
2022-08-31T18:55:42.765Z,98445.59
2022-08-31T18:58:09.380Z,98403.25
2022-08-31T19:00:36.392Z,98461.06
2022-08-31T19:03:03.047Z,98457.59
2022-08-31T19:05:31.673Z,98464.41
2022-08-31T19:08:00.300Z,98466.03
2022-08-31T19:10:27.387Z,98458.75
2022-08-31T19:12:55.907Z,98459.03
2022-08-31T19:15:25.492Z,98456.03
2022-08-31T19:17:58.543Z,98452.53
2022-08-31T19:20:29.197Z,98463.91
2022-08-31T19:22:56.931Z,98460.91
2022-08-31T19:25:24.409Z,98461.72
2022-08-31T19:27:52.061Z,98463.63
2022-08-31T19:30:24.474Z,98462.78
2022-08-31T19:32:54.154Z,98464.97
2022-08-31T19:35:21.310Z,98463.38
2022-08-31T19:37:51.832Z,98470.91
2022-08-31T19:40:19.759Z,98462.25
2022-08-31T19:43:42.959Z,98467.66
2022-08-31T19:45:43.451Z,98462.81
2022-08-31T19:48:12.370Z,98460.91
2022-08-31T19:50:42.239Z,98458.78
2022-08-31T19:53:12.110Z,98467.91
2022-08-31T19:55:51.425Z,98454.69
2022-08-31T19:58:25.295Z,98457.94
2022-08-31T20:01:00.753Z,98455.22
2022-08-31T20:03:28.293Z,98458.19
2022-08-31T20:05:55.022Z,98446.78
2022-08-31T20:08:21.590Z,98465.47
2022-08-31T20:10:49.363Z,98457.03
2022-08-31T20:13:16.229Z,98455.13
2022-08-31T20:15:45.019Z,98454.28
2022-08-31T20:18:12.728Z,98439.38
2022-08-31T20:20:48.369Z,98446.44
2022-08-31T20:23:17.376Z,98445.63
2022-08-31T20:25:45.653Z,98441.81
2022-08-31T20:28:13.555Z,98455.03
2022-08-31T20:30:41.847Z,98444.50
2022-08-31T20:33:10.613Z,98447.19
2022-08-31T20:35:42.669Z,98442.63
2022-08-31T20:38:13.217Z,98443.41
2022-08-31T20:40:41.799Z,98429.81
2022-08-31T20:43:12.615Z,98438.00
2022-08-31T20:45:41.206Z,98434.09
2022-08-31T20:48:27.140Z,98442.78
2022-08-31T20:50:53.635Z,98449.09
2022-08-31T20:53:24.997Z,98448.38
2022-08-31T20:56:07.955Z,98459.78
2022-08-31T20:58:34.463Z,98454.72
2022-08-31T21:01:05.935Z,98465.16
2022-08-31T21:03:33.405Z,98423.53
2022-08-31T21:06:08.079Z,98460.25
2022-08-31T21:08:38.160Z,98455.03
2022-08-31T21:11:16.090Z,98456.66
2022-08-31T21:13:43.731Z,98452.91
2022-08-31T21:16:10.971Z,98459.78
2022-08-31T21:18:38.807Z,98461.75
2022-08-31T21:21:08.201Z,98459.34
2022-08-31T21:23:36.786Z,98455.78
2022-08-31T21:26:04.895Z,98452.47
2022-08-31T21:28:31.459Z,98458.09
2022-08-31T21:31:15.727Z,98464.72
2022-08-31T21:34:00.491Z,98460.00
2022-08-31T21:36:28.930Z,98461.00
2022-08-31T21:38:57.128Z,98457.66
2022-08-31T21:41:26.664Z,98438.09
2022-08-31T21:43:54.580Z,98455.63
2022-08-31T21:46:24.949Z,98449.28
2022-08-31T21:48:53.392Z,98453.59
2022-08-31T21:51:28.526Z,98451.97
2022-08-31T21:53:59.158Z,98453.41
2022-08-31T21:56:28.689Z,98450.47
2022-08-31T21:58:59.323Z,98462.09
2022-08-31T22:01:29.403Z,98457.75
2022-08-31T22:03:59.135Z,98466.75
2022-08-31T22:06:29.046Z,98465.56
2022-08-31T22:09:00.075Z,98464.41
2022-08-31T22:11:29.447Z,98470.91
2022-08-31T22:13:58.951Z,98466.31
2022-08-31T22:16:26.320Z,98467.75
2022-08-31T22:19:01.356Z,98467.38
2022-08-31T22:21:31.947Z,98468.91
2022-08-31T22:24:02.487Z,98463.13
2022-08-31T22:26:30.589Z,98466.81
2022-08-31T22:28:57.169Z,98465.19
2022-08-31T22:31:25.239Z,98468.44
2022-08-31T22:33:51.995Z,98470.91
2022-08-31T22:36:31.274Z,98470.31
2022-08-31T22:39:05.530Z,98466.00
2022-08-31T22:41:33.465Z,98472.63
2022-08-31T22:44:00.201Z,98465.22
2022-08-31T22:46:27.367Z,98472.69
2022-08-31T22:48:53.880Z,98458.72
2022-08-31T22:51:22.345Z,98463.78
2022-08-31T22:53:51.511Z,98458.59
2022-08-31T22:56:27.045Z,98466.56
2022-08-31T22:58:55.197Z,98461.84
2022-08-31T23:01:26.633Z,98461.03
2022-08-31T23:03:55.949Z,98463.88
2022-08-31T23:06:24.969Z,98465.28
2022-08-31T23:08:53.073Z,98458.69
2022-08-31T23:11:21.098Z,98464.06
2022-08-31T23:13:55.480Z,98432.06
2022-08-31T23:16:39.072Z,98453.53
2022-08-31T23:19:12.304Z,98444.59
2022-08-31T23:21:50.134Z,98446.13
2022-08-31T23:24:23.591Z,98446.66
2022-08-31T23:26:50.940Z,98454.69
2022-08-31T23:29:21.698Z,98445.16
2022-08-31T23:31:48.678Z,98441.84
2022-08-31T23:34:16.325Z,98441.03
2022-08-31T23:36:47.615Z,98441.03
2022-08-31T23:39:16.779Z,98449.97
2022-08-31T23:41:44.888Z,98426.06
2022-08-31T23:44:12.939Z,98431.59
2022-08-31T23:46:43.277Z,98434.34
2022-08-31T23:49:12.386Z,98438.34
2022-08-31T23:51:39.904Z,98432.06
2022-08-31T23:54:07.922Z,98439.97
2022-08-31T23:56:40.686Z,98445.88
2022-08-31T23:59:13.992Z,98447.19
